Decoded Metar for FEFF (BANGUI in CENTRAL AFRICAN REP.) (IATA:BGF) | Meteo·Mobile Aviation Weather
aviador You're here:

FEFF Decoded Metar

BANGUI in CENTRAL AFRICAN REP.
Report Time2019-07-20 13:00:00
UTC Time2019-07-20 13:24:55
Flight Rules vfr VFR
WindVRB at 03 kt
Visibility9999 m
Phenomena:N/A
Clouds:Scattered 016 Hf
Expected CloudBase > 2,800 ft AGL from Temp-Dew spread
CeilingNone
Temp29°C (ISA +16)
Dew Point22°C (66% RH)
Heat Index32.0°C
QNH1013 hPa
Density Alt3,432 ft
Elevation1,201 ft
Report Wrong Elevation
Raw Report
FEFF 201300Z VRB03KT 9999 SCT016 29/22 Q1013 NOSIG=

Extra information for FEFF:More info

Metar Taf Metar & Taf Last 4 Metars F.Rules Stats Wind Profile Meteogram Temp Stats Airport Information Weather charts Add Link Nearby VenuesMetar ALERT Operation Metar Decoded Social comments